createdAt,value
2022-08-04T00:04:04.287Z,11.00
2022-08-04T00:10:55.979Z,13.00
2022-08-04T00:14:04.650Z,12.67
2022-08-04T00:17:10.067Z,10.67
2022-08-04T00:20:22.187Z,14.33
2022-08-04T00:23:28.971Z,11.00
2022-08-04T00:26:57.115Z,12.33
2022-08-04T00:30:03.112Z,13.67
2022-08-04T00:33:08.398Z,12.33
2022-08-04T00:36:14.010Z,10.00
2022-08-04T00:39:19.823Z,10.33
2022-08-04T00:42:59.387Z,14.67
2022-08-04T00:47:18.293Z,12.00
2022-08-04T00:50:29.503Z,13.33
2022-08-04T00:53:49.923Z,12.00
2022-08-04T00:57:33.349Z,10.67
2022-08-04T01:01:38.876Z,11.00
2022-08-04T01:05:06.166Z,16.67
2022-08-04T01:08:40.826Z,11.33
2022-08-04T01:11:58.699Z,12.33
2022-08-04T01:15:09.174Z,11.33
2022-08-04T01:18:23.578Z,14.00
2022-08-04T01:22:12.431Z,16.67
2022-08-04T01:25:43.704Z,13.00
2022-08-04T01:29:09.823Z,15.00
2022-08-04T01:32:21.023Z,12.00
2022-08-04T01:35:46.695Z,12.00
2022-08-04T01:38:55.882Z,16.67
2022-08-04T01:42:01.374Z,12.67
2022-08-04T01:45:09.809Z,13.00
2022-08-04T01:48:15.321Z,15.67
2022-08-04T01:51:21.333Z,11.33
2022-08-04T01:54:25.758Z,13.25
2022-08-04T01:57:37.539Z,13.67
2022-08-04T02:00:56.367Z,15.33
2022-08-04T02:04:20.674Z,13.33
2022-08-04T02:07:41.694Z,11.33
2022-08-04T02:10:59.192Z,13.00
2022-08-04T02:14:14.211Z,11.00
2022-08-04T02:17:28.202Z,13.67
2022-08-04T02:20:36.518Z,13.67
2022-08-04T02:23:42.219Z,12.00
2022-08-04T02:26:51.094Z,12.67
2022-08-04T02:30:04.133Z,14.00
2022-08-04T02:33:13.539Z,15.00
2022-08-04T02:36:23.677Z,13.67
2022-08-04T02:39:48.361Z,14.33
2022-08-04T02:42:56.689Z,13.33
2022-08-04T02:46:02.244Z,12.33
2022-08-04T02:49:10.695Z,15.00
2022-08-04T02:52:16.317Z,12.75
2022-08-04T02:55:21.481Z,15.00
2022-08-04T02:58:29.281Z,15.25
2022-08-04T03:01:34.054Z,14.00
2022-08-04T03:04:52.667Z,13.33
2022-08-04T03:08:25.781Z,14.25
2022-08-04T03:11:58.287Z,18.75
2022-08-04T03:16:02.152Z,14.00
2022-08-04T03:19:44.447Z,15.25
2022-08-04T03:23:21.812Z,11.50
2022-08-04T03:26:58.795Z,16.67
2022-08-04T03:30:07.598Z,14.50
2022-08-04T03:33:35.652Z,13.50
2022-08-04T03:37:22.071Z,10.50
2022-08-04T03:40:50.213Z,15.25
2022-08-04T03:44:48.880Z,12.25
2022-08-04T03:48:14.661Z,12.50
2022-08-04T03:52:02.678Z,11.00
2022-08-04T03:55:32.150Z,14.67
2022-08-04T03:59:16.391Z,14.50
2022-08-04T04:02:50.199Z,13.75
2022-08-04T04:06:32.981Z,11.25
2022-08-04T04:10:09.705Z,15.25
2022-08-04T04:13:32.140Z,16.25
2022-08-04T04:17:05.724Z,14.00
2022-08-04T04:20:49.611Z,19.75
2022-08-04T04:24:33.883Z,15.00
2022-08-04T04:28:53.792Z,16.75
2022-08-04T04:32:12.770Z,14.50
2022-08-04T04:35:39.374Z,12.25
2022-08-04T04:39:02.445Z,14.00
2022-08-04T04:42:32.562Z,12.50
2022-08-04T04:45:44.412Z,14.33
2022-08-04T04:48:55.881Z,12.75
2022-08-04T04:52:06.767Z,16.00
2022-08-04T04:55:19.945Z,17.00
2022-08-04T04:58:28.129Z,14.00
2022-08-04T05:02:06.377Z,14.33
2022-08-04T05:05:44.977Z,14.00
2022-08-04T05:09:19.674Z,13.67
2022-08-04T05:14:37.624Z,15.67
2022-08-04T05:16:34.622Z,18.33
2022-08-04T05:19:48.303Z,13.00
2022-08-04T05:22:57.337Z,19.00
2022-08-04T05:26:06.267Z,15.33
2022-08-04T05:29:18.509Z,13.00
2022-08-04T05:32:29.473Z,22.00
2022-08-04T05:35:53.024Z,14.00
2022-08-04T05:39:04.980Z,14.67
2022-08-04T05:42:11.452Z,16.67
2022-08-04T05:45:18.466Z,13.00
2022-08-04T05:48:22.729Z,16.00
2022-08-04T05:51:28.385Z,17.00
2022-08-04T05:54:34.916Z,17.67
2022-08-04T05:57:41.791Z,14.67
2022-08-04T06:00:52.269Z,15.33
2022-08-04T06:03:58.687Z,15.33
2022-08-04T06:07:03.339Z,13.67
2022-08-04T06:10:08.604Z,13.33
2022-08-04T06:13:45.420Z,13.67
2022-08-04T06:16:51.118Z,16.67
2022-08-04T06:20:18.032Z,16.67
2022-08-04T06:23:57.451Z,13.00
2022-08-04T06:27:06.416Z,14.33
2022-08-04T06:30:14.620Z,15.00
2022-08-04T06:33:33.666Z,10.33
2022-08-04T06:36:58.655Z,14.00
2022-08-04T06:40:29.919Z,10.67
2022-08-04T06:43:31.036Z,13.00
2022-08-04T06:46:39.049Z,16.00
2022-08-04T06:51:32.389Z,13.67
2022-08-04T06:53:10.348Z,14.33
2022-08-04T06:56:16.071Z,12.00
2022-08-04T06:59:22.684Z,14.67
2022-08-04T07:02:30.125Z,14.00
2022-08-04T07:05:37.311Z,15.00
2022-08-04T07:08:41.574Z,14.00
2022-08-04T07:11:47.760Z,12.33
2022-08-04T07:14:53.714Z,11.67
2022-08-04T07:18:08.813Z,12.00
2022-08-04T07:21:22.286Z,13.33
2022-08-04T07:24:31.436Z,12.00
2022-08-04T07:27:47.847Z,9.67
2022-08-04T07:30:55.396Z,11.67
2022-08-04T07:34:21.437Z,13.00
2022-08-04T07:37:30.650Z,12.33
2022-08-04T07:40:46.179Z,8.67
2022-08-04T07:43:51.233Z,12.67
2022-08-04T07:46:55.728Z,11.33
2022-08-04T07:50:00.511Z,11.00
2022-08-04T07:53:54.521Z,13.00
2022-08-04T07:56:47.536Z,11.33
2022-08-04T08:03:49.620Z,15.00
2022-08-04T08:06:58.204Z,9.00
2022-08-04T08:10:59.326Z,11.67
2022-08-04T08:14:25.182Z,10.67
2022-08-04T08:17:29.556Z,9.50
2022-08-04T08:20:34.881Z,9.00
2022-08-04T08:23:44.107Z,9.00
2022-08-04T08:26:50.762Z,6.67
2022-08-04T08:29:57.544Z,6.33
2022-08-04T08:33:08.239Z,6.33
2022-08-04T08:36:21.398Z,6.00
2022-08-04T08:39:35.484Z,5.00
2022-08-04T08:44:06.064Z,8.00
2022-08-04T08:46:54.050Z,8.00
2022-08-04T08:50:26.791Z,7.00
2022-08-04T08:54:27.372Z,9.00
2022-08-04T08:57:59.878Z,9.00
2022-08-04T09:02:16.826Z,7.00
2022-08-04T09:05:39.239Z,6.67
2022-08-04T09:09:01.286Z,8.00
2022-08-04T09:12:13.636Z,7.67
2022-08-04T09:15:23.405Z,7.00
2022-08-04T09:18:35.281Z,8.00
2022-08-04T09:21:43.079Z,10.33
2022-08-04T09:24:53.575Z,8.33
2022-08-04T09:28:09.450Z,9.67
2022-08-04T09:31:22.121Z,9.00
2022-08-04T09:38:36.182Z,7.33
2022-08-04T09:41:53.540Z,8.00
2022-08-04T09:45:06.875Z,7.00
2022-08-04T09:48:16.757Z,7.33
2022-08-04T09:51:58.027Z,7.67
2022-08-04T09:55:19.783Z,6.00
2022-08-04T09:58:57.583Z,6.00
2022-08-04T10:06:30.768Z,6.67
2022-08-04T10:09:53.893Z,7.33
2022-08-04T10:13:43.132Z,6.67
2022-08-04T10:17:18.347Z,8.67
2022-08-04T10:20:45.754Z,6.33
2022-08-04T10:24:20.862Z,7.00
2022-08-04T10:27:33.718Z,7.00
2022-08-04T10:31:00.125Z,5.67
2022-08-04T10:34:17.926Z,7.00
2022-08-04T10:37:58.995Z,6.33
2022-08-04T10:41:37.578Z,5.67
2022-08-04T10:45:02.776Z,6.00
2022-08-04T10:48:34.404Z,6.00
2022-08-04T10:51:58.083Z,7.00
2022-08-04T10:55:15.344Z,4.67
2022-08-04T10:58:47.557Z,6.67
2022-08-04T11:02:44.679Z,6.00
2022-08-04T11:06:06.671Z,7.00
2022-08-04T11:09:21.714Z,7.67
2022-08-04T11:12:29.707Z,8.33
2022-08-04T11:15:44.279Z,7.67
2022-08-04T11:19:45.255Z,5.67
2022-08-04T11:23:09.497Z,6.00
2022-08-04T11:26:17.112Z,6.00
2022-08-04T11:29:30.016Z,6.00
2022-08-04T11:32:44.277Z,8.00
2022-08-04T11:35:56.926Z,9.00
2022-08-04T11:39:11.552Z,6.00
2022-08-04T11:42:21.957Z,7.33
2022-08-04T11:45:34.790Z,8.00
2022-08-04T11:48:43.941Z,7.00
2022-08-04T11:51:55.093Z,10.33
2022-08-04T11:55:04.907Z,8.00
2022-08-04T11:58:09.060Z,6.00
2022-08-04T12:01:33.522Z,9.00
2022-08-04T12:04:54.184Z,8.00
2022-08-04T12:08:28.796Z,8.00
2022-08-04T12:11:55.018Z,8.67
2022-08-04T12:15:15.494Z,8.00
2022-08-04T12:18:26.677Z,8.67
2022-08-04T12:21:37.564Z,9.00
2022-08-04T12:24:48.900Z,7.00
2022-08-04T12:27:59.739Z,7.33
2022-08-04T12:31:15.323Z,8.33
2022-08-04T12:38:08.232Z,7.33
2022-08-04T12:41:32.048Z,7.67
2022-08-04T12:44:50.029Z,7.33
2022-08-04T12:48:03.468Z,8.00
2022-08-04T12:52:06.843Z,7.00
2022-08-04T12:54:40.238Z,7.33
2022-08-04T12:57:45.829Z,7.00
2022-08-04T13:00:59.011Z,5.33
2022-08-04T13:04:14.050Z,7.00
2022-08-04T13:07:23.254Z,9.00
2022-08-04T13:10:30.380Z,8.00
2022-08-04T13:13:38.060Z,10.00
2022-08-04T13:16:46.398Z,8.00
2022-08-04T13:19:57.656Z,7.33
2022-08-04T13:23:08.940Z,5.67
2022-08-04T13:30:25.178Z,8.00
2022-08-04T13:30:25.290Z,8.33
2022-08-04T13:36:40.646Z,7.00
2022-08-04T13:39:55.169Z,7.00
2022-08-04T13:43:00.950Z,9.33
2022-08-04T13:46:08.104Z,9.67
2022-08-04T13:49:48.624Z,7.33
2022-08-04T13:52:45.161Z,11.33
2022-08-04T13:55:50.813Z,13.00
2022-08-04T13:59:06.315Z,10.67
2022-08-04T14:02:41.977Z,10.67
2022-08-04T14:06:14.795Z,10.33
2022-08-04T14:09:36.029Z,7.00
2022-08-04T14:12:47.340Z,10.67
2022-08-04T14:16:01.373Z,11.00
2022-08-04T14:19:10.220Z,11.67
2022-08-04T14:22:53.790Z,11.67
2022-08-04T14:25:59.665Z,10.00
2022-08-04T14:29:27.890Z,10.00
2022-08-04T14:32:46.737Z,12.00
2022-08-04T14:36:07.250Z,9.00
2022-08-04T14:39:38.285Z,12.67
2022-08-04T14:42:55.586Z,10.33
2022-08-04T14:46:07.209Z,11.67
2022-08-04T14:49:12.965Z,9.00
2022-08-04T14:52:26.492Z,9.67
2022-08-04T14:55:34.419Z,10.33
2022-08-04T14:58:56.445Z,9.33
2022-08-04T15:02:01.787Z,9.67
2022-08-04T15:05:59.764Z,11.67
2022-08-04T15:08:48.311Z,9.00
2022-08-04T15:12:11.328Z,8.33
2022-08-04T15:18:54.805Z,10.67
2022-08-04T15:22:39.466Z,11.33
2022-08-04T15:25:54.039Z,10.00
2022-08-04T15:29:15.906Z,11.33
2022-08-04T15:32:25.647Z,11.00
2022-08-04T15:35:39.055Z,10.33
2022-08-04T15:39:23.180Z,8.67
2022-08-04T15:42:36.129Z,11.00
2022-08-04T15:46:02.546Z,10.00
2022-08-04T15:49:24.365Z,8.33
2022-08-04T15:52:31.955Z,10.33
2022-08-04T15:55:39.581Z,9.67
2022-08-04T15:59:24.302Z,12.33
2022-08-04T16:02:55.909Z,10.00
2022-08-04T16:06:00.345Z,12.33
2022-08-04T16:09:08.613Z,12.67
2022-08-04T16:12:57.379Z,13.00
2022-08-04T16:16:03.917Z,12.00
2022-08-04T16:19:35.284Z,13.33
2022-08-04T16:23:53.605Z,12.67
2022-08-04T16:27:04.647Z,15.33
2022-08-04T16:30:19.343Z,12.33
2022-08-04T16:33:44.098Z,14.00
2022-08-04T16:37:12.469Z,11.33
2022-08-04T16:40:45.865Z,11.67
2022-08-04T16:43:49.545Z,7.00
2022-08-04T16:47:08.873Z,12.00
2022-08-04T16:50:25.087Z,11.67
2022-08-04T16:54:04.714Z,13.67
2022-08-04T17:05:07.795Z,9.00
2022-08-04T17:12:35.094Z,9.33
2022-08-04T17:15:39.075Z,10.00
2022-08-04T17:19:05.793Z,8.00
2022-08-04T17:26:09.756Z,9.67
2022-08-04T17:33:59.884Z,10.33
2022-08-04T17:37:38.259Z,8.00
2022-08-04T17:41:00.487Z,10.00
2022-08-04T17:44:39.234Z,10.00
2022-08-04T17:47:54.672Z,11.33
2022-08-04T17:55:27.345Z,11.67
2022-08-04T17:58:35.129Z,9.00
2022-08-04T18:01:55.090Z,10.00
2022-08-04T18:09:56.821Z,10.67
2022-08-04T18:12:32.882Z,9.00
2022-08-04T18:15:46.314Z,12.00
2022-08-04T18:19:32.414Z,12.00
2022-08-04T18:22:58.410Z,12.67
2022-08-04T18:26:10.911Z,10.00
2022-08-04T18:29:31.845Z,10.00
2022-08-04T18:36:33.963Z,10.67
2022-08-04T18:40:09.997Z,8.67
2022-08-04T18:43:45.643Z,9.67
2022-08-04T18:47:23.436Z,10.00
2022-08-04T18:51:22.343Z,9.00
2022-08-04T18:54:41.967Z,9.00
2022-08-04T18:58:07.803Z,10.67
2022-08-04T19:02:12.574Z,9.67
2022-08-04T19:05:09.414Z,9.33
2022-08-04T19:08:34.720Z,12.67
2022-08-04T19:11:54.771Z,11.00
2022-08-04T19:15:18.997Z,11.67
2022-08-04T19:18:28.062Z,7.00
2022-08-04T19:22:00.873Z,10.00
2022-08-04T19:25:14.520Z,9.33
2022-08-04T19:28:43.725Z,8.33
2022-08-04T19:32:15.136Z,9.00
2022-08-04T19:35:46.286Z,9.00
2022-08-04T19:39:09.240Z,9.67
2022-08-04T19:42:16.074Z,9.33
2022-08-04T19:45:20.730Z,10.67
2022-08-04T19:48:59.583Z,8.33
2022-08-04T19:52:08.996Z,10.67
2022-08-04T19:55:16.538Z,11.00
2022-08-04T19:58:38.639Z,8.00
2022-08-04T20:02:03.272Z,8.00
2022-08-04T20:05:52.907Z,9.67
2022-08-04T20:09:38.468Z,9.00
2022-08-04T20:12:42.421Z,8.67
2022-08-04T20:15:57.481Z,9.33
2022-08-04T20:19:04.131Z,11.33
2022-08-04T20:22:51.826Z,11.33
2022-08-04T20:25:36.638Z,9.67
2022-08-04T20:28:45.816Z,8.33
2022-08-04T20:31:49.943Z,10.00
2022-08-04T20:34:58.320Z,11.00
2022-08-04T20:38:04.053Z,11.00
2022-08-04T20:41:08.432Z,10.67
2022-08-04T20:44:14.144Z,10.67
2022-08-04T20:47:23.183Z,13.33
2022-08-04T20:50:32.430Z,9.33
2022-08-04T20:53:53.046Z,12.00
2022-08-04T20:56:59.706Z,9.00
2022-08-04T21:00:04.361Z,9.00
2022-08-04T21:03:08.190Z,12.00
2022-08-04T21:06:13.663Z,12.00
2022-08-04T21:09:37.366Z,12.67
2022-08-04T21:12:49.834Z,9.00
2022-08-04T21:15:59.365Z,10.33
2022-08-04T21:19:04.093Z,11.00
2022-08-04T21:22:10.367Z,9.67
2022-08-04T21:25:16.759Z,13.67
2022-08-04T21:28:25.677Z,9.33
2022-08-04T21:31:30.419Z,13.00
2022-08-04T21:34:41.003Z,10.33
2022-08-04T21:37:56.680Z,10.00
2022-08-04T21:41:04.791Z,9.67
2022-08-04T21:44:14.518Z,9.33
2022-08-04T21:47:23.257Z,11.67
2022-08-04T21:50:30.852Z,10.00
2022-08-04T21:53:35.821Z,9.00
2022-08-04T21:57:03.551Z,9.00
2022-08-04T22:00:27.612Z,10.00
2022-08-04T22:03:52.263Z,11.67
2022-08-04T22:06:57.619Z,10.00
2022-08-04T22:10:03.304Z,13.33
2022-08-04T22:13:22.715Z,8.67
2022-08-04T22:16:32.298Z,11.00
2022-08-04T22:23:06.325Z,9.33
2022-08-04T22:26:26.576Z,13.00
2022-08-04T22:29:33.107Z,11.00
2022-08-04T22:32:36.797Z,10.33
2022-08-04T22:35:49.439Z,9.67
2022-08-04T22:39:04.413Z,14.00
2022-08-04T22:42:13.337Z,9.67
2022-08-04T22:45:19.128Z,10.00
2022-08-04T22:48:33.729Z,9.33
2022-08-04T22:51:38.387Z,10.00
2022-08-04T22:54:43.887Z,10.00
2022-08-04T22:58:04.801Z,9.33
2022-08-04T23:01:17.296Z,10.00
2022-08-04T23:04:24.947Z,10.33
2022-08-04T23:07:38.093Z,10.00
2022-08-04T23:10:55.706Z,10.67
2022-08-04T23:14:08.644Z,9.33
2022-08-04T23:17:15.077Z,14.33
2022-08-04T23:20:32.372Z,10.00
2022-08-04T23:23:46.877Z,13.67
2022-08-04T23:27:06.062Z,11.00
2022-08-04T23:30:14.595Z,14.00
2022-08-04T23:33:22.597Z,10.00
2022-08-04T23:36:31.080Z,11.67
2022-08-04T23:40:03.423Z,9.00
2022-08-04T23:43:00.327Z,13.00
2022-08-04T23:46:08.645Z,14.33
2022-08-04T23:49:16.887Z,10.00
2022-08-04T23:52:33.176Z,11.33
2022-08-04T23:55:38.715Z,11.00
2022-08-04T23:58:46.396Z,10.00
